Time;durP1;ratioP1;P1;durP2;ratioP2;P2;SDS_P1;SDS_P2;PMS_P1;PMS_P2;Temp;Humidity;BMP_temperature;BMP_pressure;BME280_temperature;BME280_humidity;BME280_pressure;Samples;Min_cycle;Max_cycle;Signal;HPM_P1;HPM_P2
2021/03/09 00:02:10;;;;;;;1.70;1.23;;;19.50;36.70;;;;;;5067538;28;20519;-70
2021/03/09 00:04:36;;;;;;;1.40;1.30;;;19.40;36.50;;;;;;5071676;28;20473;-71
2021/03/09 00:07:02;;;;;;;1.60;1.50;;;19.50;36.50;;;;;;5065337;28;20477;-70
2021/03/09 00:09:28;;;;;;;5.60;1.07;;;19.50;36.50;;;;;;5066810;28;20977;-69
2021/03/09 00:11:55;;;;;;;1.00;1.00;;;19.40;36.50;;;;;;5075798;27;20490;-69
2021/03/09 00:14:21;;;;;;;1.07;1.00;;;19.50;36.80;;;;;;5077309;27;20855;-68
2021/03/09 01:20:41;;;;;;;1.67;1.20;;;19.60;36.10;;;;;;5040485;27;20524;-71
2021/03/09 01:23:07;;;;;;;2.43;1.40;;;19.60;35.90;;;;;;5069120;28;20485;-70
2021/03/09 01:25:33;;;;;;;1.10;1.10;;;19.60;35.70;;;;;;5075445;28;20542;-69
2021/03/09 01:28:00;;;;;;;1.53;1.43;;;19.60;35.50;;;;;;5076485;28;20481;-69
2021/03/09 01:30:26;;;;;;;3.30;1.17;;;19.60;35.30;;;;;;5099389;27;20583;-69
2021/03/09 01:32:52;;;;;;;1.10;1.10;;;19.60;35.10;;;;;;5074545;27;20475;-70
2021/03/09 01:35:18;;;;;;;1.40;1.30;;;19.60;35.20;;;;;;5089652;27;21142;-70
2021/03/09 01:37:45;;;;;;;1.97;1.33;;;19.60;35.30;;;;;;5073331;28;21991;-70
2021/03/09 01:40:12;;;;;;;1.70;1.37;;;19.60;35.60;;;;;;5072985;28;20474;-70
2021/03/09 01:42:39;;;;;;;1.50;1.50;;;19.50;35.80;;;;;;5077245;28;20894;-69
2021/03/09 01:45:06;;;;;;;1.20;1.20;;;19.50;35.60;;;;;;5069517;28;20477;-71
2021/03/09 01:47:32;;;;;;;1.20;1.13;;;19.60;35.90;;;;;;5069498;28;20486;-70
2021/03/09 01:49:59;;;;;;;1.73;1.10;;;19.50;35.70;;;;;;5073223;28;20482;-70
2021/03/09 01:52:25;;;;;;;1.53;1.43;;;19.50;35.70;;;;;;5074068;28;20481;-70
2021/03/09 01:54:52;;;;;;;1.10;1.10;;;19.50;35.30;;;;;;5074851;28;20488;-69
2021/03/09 01:57:19;;;;;;;1.73;1.63;;;19.50;35.30;;;;;;5069717;28;20489;-71
2021/03/09 01:59:45;;;;;;;1.50;1.40;;;19.50;34.80;;;;;;5070650;28;20481;-70
2021/03/09 02:02:11;;;;;;;1.17;1.17;;;19.50;35.20;;;;;;5068360;28;20525;-69
2021/03/09 02:04:38;;;;;;;1.90;1.07;;;19.50;35.10;;;;;;5072667;28;20476;-71
2021/03/09 02:07:04;;;;;;;5.33;1.33;;;19.50;35.10;;;;;;5068025;28;20515;-70
2021/03/09 02:09:30;;;;;;;1.60;1.50;;;19.50;35.00;;;;;;5068838;27;20490;-69
2021/03/09 02:12:03;;;;;;;1.40;1.33;;;19.60;35.10;;;;;;5092500;27;20461;-69
2021/03/09 02:14:31;;;;;;;1.20;1.10;;;19.50;35.40;;;;;;5059374;27;20987;-69
2021/03/09 02:16:59;;;;;;;2.53;1.37;;;19.50;35.80;;;;;;5070924;28;20476;-71
2021/03/09 02:20:19;;;;;;;2.27;1.40;;;19.50;35.70;;;;;;5065004;27;20492;-70
2021/03/09 02:23:22;;;;;;;2.10;1.10;;;19.50;35.70;;;;;;5077397;27;20491;-71
2021/03/09 02:25:55;;;;;;;1.20;1.17;;;19.50;35.60;;;;;;5033709;28;20473;-69
2021/03/09 02:28:26;;;;;;;2.03;1.13;;;19.50;35.60;;;;;;5089094;27;20499;-70
2021/03/09 02:30:53;;;;;;;1.20;1.20;;;19.50;35.70;;;;;;5070794;27;20473;-71
2021/03/09 02:33:20;;;;;;;1.87;1.70;;;19.50;35.50;;;;;;5069594;28;20498;-70
2021/03/09 02:35:49;;;;;;;1.60;1.40;;;19.50;35.30;;;;;;5071169;28;20871;-69
2021/03/09 02:38:16;;;;;;;3.37;1.60;;;19.50;35.10;;;;;;5077659;27;21505;-69
2021/03/09 02:40:43;;;;;;;1.87;1.60;;;19.50;35.20;;;;;;5080731;27;20477;-70
2021/03/09 02:43:10;;;;;;;1.80;1.40;;;19.50;35.30;;;;;;5070842;28;20469;-69
2021/03/09 02:45:37;;;;;;;1.33;1.27;;;19.50;35.20;;;;;;5071286;28;20566;-68
2021/03/09 02:48:05;;;;;;;1.40;1.30;;;19.60;35.00;;;;;;5068078;28;20512;-69
2021/03/09 02:50:33;;;;;;;2.00;1.77;;;19.50;34.90;;;;;;5071408;28;20493;-70
2021/03/09 02:53:01;;;;;;;3.33;1.20;;;19.50;35.30;;;;;;5056388;28;20482;-69
2021/03/09 02:55:27;;;;;;;2.40;1.33;;;19.50;36.10;;;;;;5071121;28;20473;-70
2021/03/09 02:57:53;;;;;;;2.30;1.20;;;19.50;35.50;;;;;;5068616;28;20980;-70
2021/03/09 03:00:20;;;;;;;1.30;1.30;;;19.50;35.10;;;;;;5066483;28;20481;-69
2021/03/09 03:02:46;;;;;;;1.70;1.33;;;19.50;35.00;;;;;;5073043;28;20849;-70
2021/03/09 03:05:14;;;;;;;1.70;1.60;;;19.50;34.90;;;;;;5069760;28;20484;-69
2021/03/09 03:07:40;;;;;;;1.10;1.10;;;19.50;35.00;;;;;;5070386;28;20519;-70
2021/03/09 03:10:11;;;;;;;1.53;1.43;;;19.50;34.80;;;;;;5089785;27;21124;-67
2021/03/09 03:12:37;;;;;;;1.50;1.27;;;19.50;34.90;;;;;;5072235;28;20520;-70
2021/03/09 03:15:05;;;;;;;1.77;1.20;;;19.60;34.70;;;;;;5071390;28;20486;-70
2021/03/09 03:17:31;;;;;;;2.83;1.23;;;19.50;34.70;;;;;;5072214;28;20504;-70
2021/03/09 03:19:57;;;;;;;1.30;1.20;;;19.60;34.90;;;;;;5068312;28;20469;-70
2021/03/09 03:22:25;;;;;;;3.23;1.60;;;19.60;35.10;;;;;;5070319;28;20481;-70
2021/03/09 03:24:51;;;;;;;1.30;1.20;;;19.50;35.40;;;;;;5070597;28;20493;-69
2021/03/09 03:27:17;;;;;;;2.80;1.20;;;19.50;34.90;;;;;;5067070;28;20477;-70
2021/03/09 03:29:43;;;;;;;1.13;1.13;;;19.50;34.90;;;;;;5077345;27;20490;-70
2021/03/09 03:32:10;;;;;;;1.10;1.00;;;19.50;34.90;;;;;;5081956;27;20480;-69
2021/03/09 03:34:36;;;;;;;1.00;1.00;;;19.50;35.00;;;;;;5069367;28;20485;-71
2021/03/09 03:37:02;;;;;;;2.40;1.33;;;19.60;35.10;;;;;;5068145;28;20500;-70
2021/03/09 03:39:29;;;;;;;1.23;1.20;;;19.60;34.80;;;;;;5068950;28;20480;-71
2021/03/09 03:41:55;;;;;;;1.00;1.00;;;19.60;34.60;;;;;;5070064;28;20476;-69
2021/03/09 03:44:22;;;;;;;1.30;1.20;;;19.60;34.70;;;;;;5067144;28;20493;-69
2021/03/09 03:46:48;;;;;;;1.47;1.43;;;19.50;34.70;;;;;;5070828;28;20540;-70
2021/03/09 03:49:14;;;;;;;1.27;1.27;;;19.50;34.80;;;;;;5067099;28;20484;-69
2021/03/09 03:51:44;;;;;;;1.57;1.00;;;19.50;35.00;;;;;;5070242;28;20488;-69
2021/03/09 03:54:18;;;;;;;3.47;1.60;;;19.50;35.30;;;;;;5068932;28;20489;-68
2021/03/09 03:56:49;;;;;;;1.00;0.93;;;19.50;35.20;;;;;;5066573;28;20485;-68
2021/03/09 03:59:17;;;;;;;1.80;1.33;;;19.50;35.30;;;;;;5068654;28;21045;-70
2021/03/09 04:01:43;;;;;;;1.00;1.00;;;19.50;35.20;;;;;;5070991;28;20492;-70
2021/03/09 04:04:10;;;;;;;0.97;0.97;;;19.50;35.30;;;;;;5070933;28;21126;-70
2021/03/09 04:06:37;;;;;;;1.20;1.10;;;19.50;35.30;;;;;;5067537;28;20489;-69
2021/03/09 04:09:05;;;;;;;2.70;1.60;;;19.50;35.00;;;;;;5070048;28;20486;-70
2021/03/09 04:11:31;;;;;;;1.83;1.07;;;19.40;34.30;;;;;;5072219;28;20891;-69
2021/03/09 04:13:58;;;;;;;2.40;1.40;;;19.40;34.30;;;;;;5069525;28;20471;-71
2021/03/09 04:16:24;;;;;;;1.17;1.00;;;19.30;34.30;;;;;;5069703;28;21001;-70
2021/03/09 04:18:50;;;;;;;1.70;1.60;;;19.30;34.20;;;;;;5067738;28;20595;-70
2021/03/09 04:21:17;;;;;;;1.60;1.50;;;19.30;34.20;;;;;;5071707;28;20490;-70
2021/03/09 04:23:43;;;;;;;1.20;1.10;;;19.40;34.10;;;;;;5072629;28;20492;-69
2021/03/09 04:26:09;;;;;;;1.43;1.17;;;19.50;34.10;;;;;;5073638;28;20547;-69
2021/03/09 04:28:37;;;;;;;1.57;1.30;;;19.60;34.10;;;;;;5072898;28;20543;-70
2021/03/09 04:31:04;;;;;;;1.07;1.07;;;19.60;33.80;;;;;;5073852;28;20473;-70
2021/03/09 04:33:30;;;;;;;0.90;0.90;;;19.70;34.10;;;;;;5074720;28;20533;-73
2021/03/09 04:35:57;;;;;;;1.27;1.27;;;19.70;34.10;;;;;;5070660;28;20856;-69
2021/03/09 04:38:23;;;;;;;2.20;1.47;;;19.60;33.80;;;;;;5070887;28;20466;-70
2021/03/09 04:40:50;;;;;;;3.17;1.40;;;19.60;34.10;;;;;;5074047;27;20490;-68
2021/03/09 04:43:16;;;;;;;1.27;1.17;;;19.50;34.20;;;;;;5092009;27;20982;-71
2021/03/09 04:45:42;;;;;;;4.30;1.70;;;19.50;34.30;;;;;;5072179;28;20488;-72
2021/03/09 04:48:09;;;;;;;1.27;1.27;;;19.50;34.50;;;;;;5085708;27;20471;-73
2021/03/09 04:50:36;;;;;;;1.20;1.17;;;19.50;34.40;;;;;;5080996;27;20972;-70
2021/03/09 04:53:02;;;;;;;1.83;1.27;;;19.50;34.50;;;;;;5073813;28;20485;-69
2021/03/09 04:55:28;;;;;;;1.40;1.20;;;19.50;34.50;;;;;;5074370;28;20485;-70
2021/03/09 04:57:54;;;;;;;1.43;0.97;;;19.50;34.50;;;;;;5070789;28;21186;-70
2021/03/09 05:00:22;;;;;;;1.07;0.90;;;19.50;34.50;;;;;;5065135;27;20477;-70
2021/03/09 05:02:49;;;;;;;1.53;1.43;;;19.50;34.90;;;;;;5096529;27;20481;-70
2021/03/09 05:05:17;;;;;;;2.90;1.30;;;19.40;35.40;;;;;;5072319;28;20495;-69
2021/03/09 05:07:43;;;;;;;0.80;0.80;;;19.40;34.70;;;;;;5070465;28;20479;-70
2021/03/09 05:10:10;;;;;;;1.47;1.20;;;19.30;34.80;;;;;;5074424;28;20488;-69
2021/03/09 05:12:39;;;;;;;0.90;0.90;;;19.40;35.10;;;;;;5073222;28;20472;-70
2021/03/09 05:15:06;;;;;;;1.33;1.23;;;19.40;35.10;;;;;;5095801;27;20589;-71
2021/03/09 05:17:33;;;;;;;1.37;1.27;;;19.30;35.10;;;;;;5075328;28;20493;-69
2021/03/09 05:19:59;;;;;;;1.30;1.10;;;19.40;34.80;;;;;;5066353;28;20498;-70
2021/03/09 05:22:26;;;;;;;4.00;1.40;;;19.40;34.80;;;;;;5075775;28;20482;-71
2021/03/09 05:24:52;;;;;;;1.10;1.07;;;19.50;34.90;;;;;;5069659;28;20510;-69
2021/03/09 05:27:18;;;;;;;1.47;1.13;;;19.50;35.00;;;;;;5071736;28;20485;-69
2021/03/09 05:29:44;;;;;;;1.40;1.40;;;19.50;34.80;;;;;;5070468;28;20473;-69
2021/03/09 05:32:11;;;;;;;1.07;1.07;;;19.50;34.70;;;;;;5069935;27;20483;-68
2021/03/09 05:34:37;;;;;;;1.93;1.80;;;19.60;34.70;;;;;;5090164;27;20484;-70
2021/03/09 05:37:03;;;;;;;1.40;1.17;;;19.60;34.70;;;;;;5067860;28;20997;-68
2021/03/09 05:39:30;;;;;;;1.50;1.43;;;19.60;34.90;;;;;;5072957;28;20510;-70
2021/03/09 05:41:56;;;;;;;1.53;1.20;;;19.60;34.80;;;;;;5070775;28;20473;-69
2021/03/09 05:44:22;;;;;;;1.07;1.07;;;19.60;34.60;;;;;;5070533;28;20485;-70
2021/03/09 05:46:49;;;;;;;1.17;1.17;;;19.60;34.40;;;;;;5074991;28;20546;-70
2021/03/09 05:49:15;;;;;;;2.97;1.20;;;19.60;34.30;;;;;;5069934;28;20477;-71
2021/03/09 05:51:41;;;;;;;1.73;1.40;;;19.60;34.40;;;;;;5074490;28;20988;-70
2021/03/09 05:54:07;;;;;;;3.23;1.37;;;19.60;34.60;;;;;;5075770;28;20481;-71
2021/03/09 05:56:34;;;;;;;1.33;1.13;;;19.60;34.80;;;;;;5069625;28;20820;-70
2021/03/09 05:59:01;;;;;;;1.90;1.80;;;19.60;34.90;;;;;;5060301;28;20481;-70
2021/03/09 06:01:27;;;;;;;1.77;1.60;;;19.60;34.80;;;;;;5068609;28;20481;-69
2021/03/09 06:03:53;;;;;;;2.27;2.07;;;19.60;34.80;;;;;;5082299;27;21028;-69
2021/03/09 06:06:19;;;;;;;1.90;1.63;;;19.60;34.90;;;;;;5081401;27;21716;-70
2021/03/09 06:08:45;;;;;;;1.50;1.40;;;19.70;34.90;;;;;;5069993;28;20484;-70
2021/03/09 06:11:13;;;;;;;1.43;1.30;;;19.60;35.00;;;;;;5072836;28;20488;-69
2021/03/09 06:13:40;;;;;;;2.27;2.07;;;19.60;35.10;;;;;;5068293;28;20502;-69
2021/03/09 06:16:06;;;;;;;1.70;1.60;;;19.60;34.70;;;;;;5069123;28;20552;-69
2021/03/09 06:18:32;;;;;;;1.30;1.20;;;19.60;34.80;;;;;;5071038;28;20494;-69
2021/03/09 06:21:09;;;;;;;1.53;1.43;;;19.60;34.70;;;;;;5068692;28;20486;-68
2021/03/09 06:23:35;;;;;;;2.80;1.80;;;19.70;34.70;;;;;;5068644;28;20476;-69
2021/03/09 06:26:01;;;;;;;2.43;2.20;;;19.80;34.60;;;;;;5067623;28;20478;-71
2021/03/09 06:28:29;;;;;;;2.80;1.50;;;19.80;34.50;;;;;;5072001;28;21049;-70
2021/03/09 06:30:56;;;;;;;1.97;1.87;;;19.80;34.60;;;;;;5069423;28;20473;-70
2021/03/09 06:33:26;;;;;;;2.27;1.63;;;19.80;34.60;;;;;;5071304;28;20489;-71
2021/03/09 06:35:53;;;;;;;2.60;1.70;;;19.80;34.60;;;;;;5069820;28;20492;-70
2021/03/09 06:38:23;;;;;;;1.50;1.43;;;19.80;34.70;;;;;;5069799;28;20574;-70
2021/03/09 06:41:07;;;;;;;13.37;2.80;;;19.80;34.80;;;;;;5067546;28;20485;-72
2021/03/09 06:43:33;;;;;;;1.67;1.30;;;19.70;37.00;;;;;;5061545;28;20491;-69
2021/03/09 06:46:14;;;;;;;2.63;1.77;;;19.70;35.20;;;;;;5067267;28;20470;-71
2021/03/09 06:48:40;;;;;;;1.87;1.77;;;19.70;35.50;;;;;;5072534;28;20481;-70
2021/03/09 06:51:06;;;;;;;1.27;1.27;;;19.60;35.50;;;;;;5073469;28;20483;-69
2021/03/09 06:53:33;;;;;;;1.83;1.57;;;19.60;35.40;;;;;;5066345;28;21280;-70
2021/03/09 06:55:59;;;;;;;3.07;1.80;;;19.60;35.60;;;;;;5069564;28;21665;-70
2021/03/09 06:58:29;;;;;;;1.80;1.70;;;19.50;35.70;;;;;;5069665;27;20494;-70
2021/03/09 07:00:55;;;;;;;1.33;1.30;;;19.50;35.70;;;;;;5088159;27;20482;-69
2021/03/09 07:03:34;;;;;;;1.93;1.80;;;19.50;35.80;;;;;;5066975;28;20481;-71
2021/03/09 07:06:01;;;;;;;1.83;1.70;;;19.50;35.80;;;;;;5062784;27;20483;-70
2021/03/09 07:08:27;;;;;;;1.50;1.40;;;19.50;35.70;;;;;;5078348;27;20480;-70
2021/03/09 07:10:53;;;;;;;1.80;1.70;;;19.50;35.70;;;;;;5070069;28;20482;-70
2021/03/09 07:13:20;;;;;;;2.80;2.10;;;19.50;35.50;;;;;;5069634;28;20477;-70
2021/03/09 07:15:46;;;;;;;1.87;1.77;;;19.50;35.50;;;;;;5068890;27;20499;-71
2021/03/09 07:18:13;;;;;;;2.07;1.97;;;19.50;35.80;;;;;;5086447;27;20539;-71
2021/03/09 07:20:40;;;;;;;1.70;1.60;;;19.60;36.30;;;;;;5068327;28;20573;-70
2021/03/09 07:23:06;;;;;;;1.20;1.20;;;19.60;36.40;;;;;;5067384;28;20481;-70
2021/03/09 07:25:32;;;;;;;2.30;2.10;;;19.60;36.50;;;;;;5074449;27;20564;-70
2021/03/09 07:28:22;;;;;;;2.50;1.60;;;19.70;36.70;;;;;;5082674;27;21129;-69
2021/03/09 07:30:50;;;;;;;2.47;1.83;;;19.70;36.80;;;;;;5072590;28;20477;-70
2021/03/09 07:33:16;;;;;;;1.80;1.70;;;19.70;36.70;;;;;;5091091;27;21116;-69
2021/03/09 07:35:43;;;;;;;3.60;1.80;;;19.80;36.80;;;;;;5068812;28;20567;-70
2021/03/09 07:38:10;;;;;;;1.97;1.50;;;19.80;36.80;;;;;;5060543;28;20488;-69
2021/03/09 07:40:36;;;;;;;1.73;1.57;;;19.80;37.00;;;;;;5076118;28;20480;-69
2021/03/09 07:43:03;;;;;;;1.40;1.30;;;19.80;36.90;;;;;;5096639;27;20586;-71
2021/03/09 07:45:30;;;;;;;8.20;1.80;;;19.80;36.90;;;;;;5069145;28;20473;-72
2021/03/09 07:47:57;;;;;;;1.97;1.40;;;19.80;36.90;;;;;;5071093;28;21106;-70
2021/03/09 07:50:25;;;;;;;2.23;1.60;;;19.90;36.90;;;;;;5072828;28;20485;-70
2021/03/09 07:53:08;;;;;;;2.20;1.73;;;19.90;37.00;;;;;;5069793;28;20476;-71
2021/03/09 07:55:34;;;;;;;1.53;1.43;;;19.90;37.10;;;;;;5061876;28;20488;-71
2021/03/09 07:58:13;;;;;;;4.93;1.60;;;19.80;37.30;;;;;;5081126;27;20477;-71
2021/03/09 08:00:50;;;;;;;4.40;2.93;;;19.80;37.10;;;;;;5073984;28;20525;-71
2021/03/09 08:03:19;;;;;;;2.80;2.40;;;19.80;37.50;;;;;;5071194;28;20496;-71
2021/03/09 08:05:50;;;;;;;3.67;3.30;;;19.80;37.70;;;;;;5073722;28;20491;-70
2021/03/09 08:08:52;;;;;;;3.13;2.47;;;19.60;37.60;;;;;;5073742;28;20581;-72
2021/03/09 08:11:38;;;;;;;4.10;2.10;;;19.50;37.40;;;;;;5061746;28;20472;-71
2021/03/09 08:14:20;;;;;;;2.93;2.10;;;19.50;37.50;;;;;;5076874;27;20492;-71
2021/03/09 08:16:48;;;;;;;2.30;2.20;;;19.40;37.40;;;;;;5076367;28;20476;-71
2021/03/09 08:19:35;;;;;;;3.63;2.33;;;19.50;37.50;;;;;;5072978;28;20477;-71
2021/03/09 08:22:01;;;;;;;4.50;2.60;;;19.50;37.40;;;;;;5075153;28;20765;-71
2021/03/09 08:24:49;;;;;;;4.30;2.27;;;19.40;37.30;;;;;;5076101;27;20530;-71
2021/03/09 08:27:37;;;;;;;4.90;2.73;;;19.40;37.30;;;;;;5084412;27;20922;-71
2021/03/09 08:30:36;;;;;;;2.20;2.07;;;19.30;37.30;;;;;;5066127;27;20551;-70
2021/03/09 08:33:33;;;;;;;1.90;1.80;;;19.30;37.30;;;;;;5074316;27;20473;-71
2021/03/09 08:36:00;;;;;;;4.17;2.43;;;19.40;37.30;;;;;;5070567;28;20466;-70
2021/03/09 08:38:27;;;;;;;3.70;3.40;;;19.40;37.40;;;;;;5075067;28;20483;-72
2021/03/09 08:41:10;;;;;;;5.07;4.57;;;19.40;37.40;;;;;;5071546;28;20518;-71
2021/03/09 08:43:38;;;;;;;7.87;4.57;;;19.40;37.40;;;;;;5071572;28;20494;-71
2021/03/09 08:46:05;;;;;;;3.87;3.67;;;19.30;37.30;;;;;;5077581;27;20475;-71
2021/03/09 08:48:54;;;;;;;3.90;3.47;;;19.30;37.30;;;;;;5087056;27;20541;-71
2021/03/09 08:51:48;;;;;;;4.10;3.67;;;19.30;39.00;;;;;;5072138;28;20477;-74
2021/03/09 08:54:27;;;;;;;4.53;3.00;;;19.50;38.00;;;;;;5073854;28;20487;-74
2021/03/09 08:56:53;;;;;;;18.43;5.27;;;19.50;52.10;;;;;;5070151;28;20511;-73
2021/03/09 08:59:24;;;;;;;19.90;5.80;;;19.60;78.30;;;;;;5072731;28;20492;-75
2021/03/09 09:01:50;;;;;;;13.20;6.00;;;19.80;90.70;;;;;;5073663;28;20574;-74
2021/03/09 09:04:17;;;;;;;16.33;6.43;;;20.10;94.40;;;;;;5074186;28;20484;-74
2021/03/09 09:06:43;;;;;;;38.40;7.57;;;20.40;97.00;;;;;;5071896;28;21088;-74
2021/03/09 09:09:09;;;;;;;53.13;10.00;;;20.70;99.90;;;;;;5072437;28;20496;-74
2021/03/09 09:11:35;;;;;;;48.13;11.10;;;20.90;99.90;;;;;;5074421;28;20477;-74
2021/03/09 09:14:18;;;;;;;102.87;17.10;;;21.10;99.90;;;;;;5070984;28;21238;-74
2021/03/09 09:16:46;;;;;;;137.47;23.50;;;21.30;99.90;;;;;;5069756;28;20483;-74
2021/03/09 09:19:12;;;;;;;216.90;35.80;;;21.50;99.90;;;;;;5063151;27;20480;-73
2021/03/09 09:21:45;;;;;;;192.10;35.03;;;21.60;99.90;;;;;;5093519;27;20488;-74
2021/03/09 09:24:16;;;;;;;199.13;37.10;;;21.60;96.80;;;;;;5096966;27;20727;-74
2021/03/09 09:26:43;;;;;;;231.77;42.77;;;21.30;91.40;;;;;;5072082;28;20574;-74
2021/03/09 09:29:09;;;;;;;166.43;36.43;;;21.20;93.30;;;;;;5072250;28;20485;-75
2021/03/09 09:31:35;;;;;;;200.73;43.93;;;21.30;95.10;;;;;;5069262;28;21469;-72
2021/03/09 09:34:02;;;;;;;160.17;37.47;;;21.40;95.40;;;;;;5059054;27;20476;-74
2021/03/09 09:36:29;;;;;;;125.33;31.40;;;21.40;89.30;;;;;;5087210;27;20587;-72
2021/03/09 09:38:55;;;;;;;102.83;22.40;;;21.20;77.20;;;;;;5068530;28;21490;-75
2021/03/09 09:41:22;;;;;;;66.87;19.20;;;20.90;70.60;;;;;;5072289;28;20492;-73
2021/03/09 09:43:48;;;;;;;56.47;14.70;;;20.70;63.30;;;;;;5069106;28;20491;-74
2021/03/09 09:46:16;;;;;;;59.23;15.67;;;20.60;57.00;;;;;;5079317;28;20592;-75
2021/03/09 09:48:42;;;;;;;56.10;14.27;;;20.30;62.80;;;;;;5070056;28;20530;-74
2021/03/09 09:51:14;;;;;;;40.83;11.53;;;20.10;60.80;;;;;;5072291;28;21134;-72
2021/03/09 09:53:41;;;;;;;45.53;11.30;;;19.90;58.70;;;;;;5068050;28;20507;-74
2021/03/09 09:56:08;;;;;;;36.73;10.87;;;19.80;54.90;;;;;;5069122;28;20488;-74
2021/03/09 09:58:44;;;;;;;42.30;10.57;;;19.80;54.10;;;;;;5070751;28;20534;-73
2021/03/09 10:01:11;;;;;;;34.10;11.30;;;19.80;51.10;;;;;;5070228;28;20776;-74
2021/03/09 10:03:50;;;;;;;47.87;10.60;;;19.80;50.90;;;;;;5070734;28;21007;-74
2021/03/09 10:06:17;;;;;;;28.87;10.23;;;19.80;49.70;;;;;;5088871;27;20500;-75
2021/03/09 10:08:44;;;;;;;27.77;9.03;;;19.80;49.30;;;;;;5089197;27;20471;-75
2021/03/09 10:11:10;;;;;;;32.67;8.63;;;19.80;48.90;;;;;;5093000;27;20498;-75
2021/03/09 10:13:37;;;;;;;22.10;7.77;;;19.80;48.20;;;;;;5077397;27;21918;-75
2021/03/09 10:16:03;;;;;;;25.90;8.97;;;19.80;47.60;;;;;;5072950;28;20477;-73
2021/03/09 10:18:30;;;;;;;26.13;9.60;;;19.80;47.90;;;;;;5072307;28;20480;-75
2021/03/09 10:21:04;;;;;;;20.83;7.33;;;19.80;46.50;;;;;;5069283;28;20539;-74
2021/03/09 10:23:31;;;;;;;21.70;7.57;;;19.90;46.20;;;;;;5071872;28;20996;-73
2021/03/09 10:25:59;;;;;;;21.23;9.17;;;20.00;45.60;;;;;;5070145;28;20520;-75
2021/03/09 10:28:26;;;;;;;18.87;6.07;;;20.00;46.00;;;;;;5070054;28;20491;-73
2021/03/09 10:30:52;;;;;;;11.80;6.47;;;19.90;45.60;;;;;;5069083;28;20516;-74
2021/03/09 10:33:18;;;;;;;19.53;7.13;;;19.90;45.60;;;;;;5071500;28;20484;-74
2021/03/09 10:36:07;;;;;;;19.37;7.27;;;19.80;45.40;;;;;;5068894;28;20507;-74
2021/03/09 10:38:34;;;;;;;21.90;6.03;;;19.80;45.40;;;;;;5060865;27;20471;-74
2021/03/09 10:41:00;;;;;;;21.07;5.97;;;19.80;44.80;;;;;;5080683;27;20481;-74
2021/03/09 10:43:40;;;;;;;19.03;6.17;;;19.80;44.80;;;;;;5070137;28;20480;-75
2021/03/09 10:46:06;;;;;;;14.03;5.57;;;19.80;44.50;;;;;;5059516;28;20485;-75
2021/03/09 10:48:32;;;;;;;8.27;5.03;;;19.80;44.20;;;;;;5068902;28;20484;-74
2021/03/09 10:50:59;;;;;;;10.47;3.97;;;19.80;43.90;;;;;;5086146;27;20472;-74
2021/03/09 10:53:25;;;;;;;13.80;5.27;;;19.80;44.00;;;;;;5073433;27;20496;-73
2021/03/09 10:55:52;;;;;;;8.40;4.57;;;19.80;43.70;;;;;;5088219;27;20521;-74
2021/03/09 10:58:18;;;;;;;11.87;4.40;;;19.80;44.10;;;;;;5073987;27;20491;-73
2021/03/09 11:00:44;;;;;;;6.83;3.67;;;19.80;43.90;;;;;;5090358;27;20488;-74
2021/03/09 11:03:11;;;;;;;8.00;3.30;;;19.80;43.80;;;;;;5072711;28;20492;-75
2021/03/09 11:05:37;;;;;;;8.80;5.23;;;19.70;43.70;;;;;;5083783;27;20487;-75
2021/03/09 11:08:03;;;;;;;9.70;4.53;;;19.70;43.50;;;;;;5078270;27;20480;-74
2021/03/09 11:10:30;;;;;;;10.77;4.07;;;19.70;43.50;;;;;;5072585;28;20470;-74
2021/03/09 11:12:57;;;;;;;7.93;3.97;;;19.70;43.30;;;;;;5071176;28;20485;-74
2021/03/09 11:15:23;;;;;;;8.77;3.50;;;19.70;43.20;;;;;;5071794;28;20473;-75
2021/03/09 11:17:49;;;;;;;8.33;3.93;;;19.70;43.10;;;;;;5072172;28;20468;-75
2021/03/09 11:20:16;;;;;;;11.10;4.60;;;19.70;42.90;;;;;;5071912;28;20811;-75
2021/03/09 11:22:43;;;;;;;12.63;4.20;;;19.70;43.10;;;;;;5070037;28;20534;-75
2021/03/09 11:25:10;;;;;;;10.57;4.00;;;19.70;43.00;;;;;;5068082;28;20903;-75
2021/03/09 11:27:36;;;;;;;7.40;3.53;;;19.60;42.70;;;;;;5068182;28;20480;-76
2021/03/09 11:30:04;;;;;;;6.47;4.20;;;19.60;42.60;;;;;;5072163;27;20486;-73
2021/03/09 11:32:30;;;;;;;4.17;2.50;;;19.60;42.50;;;;;;5083931;27;20477;-73
2021/03/09 11:34:57;;;;;;;5.70;3.13;;;19.60;42.40;;;;;;5067609;28;20493;-73
2021/03/09 11:37:23;;;;;;;6.67;3.10;;;19.60;42.00;;;;;;5068129;28;21277;-75
2021/03/09 11:39:49;;;;;;;4.63;3.00;;;19.60;41.90;;;;;;5067970;28;20485;-73
2021/03/09 11:42:15;;;;;;;4.90;3.00;;;19.60;41.70;;;;;;5069735;28;20481;-74
2021/03/09 11:44:42;;;;;;;6.33;3.40;;;19.60;41.90;;;;;;5069290;28;20480;-74
2021/03/09 11:47:10;;;;;;;4.87;2.10;;;19.60;41.80;;;;;;5065741;28;20493;-74
2021/03/09 11:49:36;;;;;;;1.90;1.80;;;19.60;41.70;;;;;;5071296;28;20484;-72
2021/03/09 11:52:02;;;;;;;3.83;3.20;;;19.60;41.80;;;;;;5079778;28;20472;-74
2021/03/09 11:54:28;;;;;;;4.93;2.87;;;19.60;41.70;;;;;;5076039;28;20473;-75
2021/03/09 11:56:54;;;;;;;3.73;2.00;;;19.60;41.70;;;;;;5067974;28;20469;-74
2021/03/09 11:59:22;;;;;;;4.13;2.30;;;19.60;41.50;;;;;;5071175;28;20490;-75
2021/03/09 12:01:48;;;;;;;7.20;2.30;;;19.60;41.50;;;;;;5071663;28;20580;-74
2021/03/09 12:04:16;;;;;;;2.60;2.40;;;19.60;41.40;;;;;;5068885;28;20490;-74
2021/03/09 12:06:42;;;;;;;3.60;2.50;;;19.60;41.30;;;;;;5065315;28;20484;-75
2021/03/09 12:09:09;;;;;;;3.80;2.17;;;19.60;41.20;;;;;;5079310;28;20481;-75
2021/03/09 12:11:35;;;;;;;2.60;2.30;;;19.60;41.20;;;;;;5071196;28;20488;-71
2021/03/09 12:14:01;;;;;;;6.23;2.77;;;19.60;41.10;;;;;;5067718;28;20611;-73
2021/03/09 12:16:28;;;;;;;2.80;2.20;;;19.50;41.00;;;;;;5070337;28;20487;-73
2021/03/09 12:18:55;;;;;;;3.23;2.23;;;19.60;41.10;;;;;;5084757;27;20490;-73
2021/03/09 12:21:22;;;;;;;2.07;1.93;;;19.50;40.90;;;;;;5084746;28;20495;-73
2021/03/09 12:23:48;;;;;;;3.20;2.37;;;19.60;40.90;;;;;;5066419;28;20492;-73
2021/03/09 12:26:14;;;;;;;2.20;2.10;;;19.70;40.60;;;;;;5066737;28;21435;-74
2021/03/09 12:28:40;;;;;;;3.90;2.10;;;19.70;40.30;;;;;;5067148;28;20488;-73
2021/03/09 12:31:06;;;;;;;4.07;2.97;;;19.80;40.20;;;;;;5080089;27;20788;-73
2021/03/09 12:33:33;;;;;;;3.33;2.47;;;19.80;39.90;;;;;;5060787;28;20493;-73
2021/03/09 12:36:00;;;;;;;2.90;2.67;;;19.90;39.90;;;;;;5069433;28;20484;-73
2021/03/09 12:38:27;;;;;;;2.40;2.20;;;19.90;39.80;;;;;;5066539;28;20493;-74
2021/03/09 12:40:53;;;;;;;3.43;2.47;;;19.90;39.50;;;;;;5068984;28;20485;-74
2021/03/09 12:43:19;;;;;;;7.27;1.90;;;19.90;39.60;;;;;;5072561;28;20503;-72
2021/03/09 12:45:45;;;;;;;2.60;2.40;;;19.90;39.60;;;;;;5074445;28;20484;-73
2021/03/09 12:48:12;;;;;;;2.47;2.30;;;19.80;39.90;;;;;;5073427;28;20488;-69
2021/03/09 12:50:38;;;;;;;2.17;2.07;;;19.70;40.00;;;;;;5067821;28;21274;-70
2021/03/09 12:53:04;;;;;;;2.20;2.00;;;19.70;40.20;;;;;;5102051;27;20527;-69
2021/03/09 12:55:31;;;;;;;2.00;1.90;;;19.70;40.30;;;;;;5074202;28;20480;-70
2021/03/09 12:57:57;;;;;;;2.57;2.47;;;19.70;40.40;;;;;;5072748;28;20484;-71
2021/03/09 13:00:24;;;;;;;3.10;1.80;;;19.70;40.50;;;;;;5072171;28;20477;-70
2021/03/09 13:02:50;;;;;;;1.73;1.63;;;19.60;40.60;;;;;;5072422;28;20492;-69
2021/03/09 13:05:16;;;;;;;2.23;2.13;;;19.60;40.60;;;;;;5072675;28;20480;-69
2021/03/09 13:07:42;;;;;;;7.10;2.53;;;19.60;40.80;;;;;;5071880;28;20477;-70
2021/03/09 13:10:10;;;;;;;3.93;2.00;;;19.70;41.10;;;;;;5072143;28;20484;-69
2021/03/09 13:12:37;;;;;;;1.50;1.40;;;19.70;40.90;;;;;;5072666;28;20480;-70
2021/03/09 13:15:05;;;;;;;3.53;2.13;;;19.70;41.00;;;;;;5060113;28;20484;-70
2021/03/09 13:17:31;;;;;;;3.50;1.90;;;19.80;41.00;;;;;;5072153;28;20988;-69
2021/03/09 13:19:57;;;;;;;2.77;1.73;;;19.80;40.80;;;;;;5072775;28;20485;-71
2021/03/09 13:22:23;;;;;;;2.43;1.73;;;19.80;40.90;;;;;;5073024;28;20485;-70
2021/03/09 13:24:49;;;;;;;2.10;1.90;;;19.70;40.60;;;;;;5069690;27;20495;-70
2021/03/09 13:27:16;;;;;;;4.83;1.70;;;19.80;40.70;;;;;;5070206;28;20501;-70
2021/03/09 13:29:43;;;;;;;2.00;1.90;;;19.70;40.50;;;;;;5080282;27;20490;-70
2021/03/09 13:32:09;;;;;;;1.93;1.80;;;19.70;40.60;;;;;;5083576;27;20504;-70
2021/03/09 13:34:35;;;;;;;2.30;2.20;;;19.70;40.50;;;;;;5073387;28;20500;-70
2021/03/09 13:37:02;;;;;;;5.23;1.97;;;19.70;40.60;;;;;;5067273;28;20496;-70
2021/03/09 13:39:28;;;;;;;1.70;1.60;;;19.70;40.60;;;;;;5069014;28;20916;-70
2021/03/09 13:41:54;;;;;;;1.90;1.77;;;19.70;40.50;;;;;;5069878;28;20484;-70
2021/03/09 13:44:20;;;;;;;2.17;2.07;;;19.70;40.30;;;;;;5071023;28;20478;-70
2021/03/09 13:46:48;;;;;;;1.80;1.70;;;19.70;40.40;;;;;;5073136;28;20492;-70
2021/03/09 13:49:15;;;;;;;2.23;2.07;;;19.70;40.50;;;;;;5068980;28;20539;-71
2021/03/09 13:51:41;;;;;;;1.80;1.70;;;19.70;40.40;;;;;;5070788;28;20548;-70
2021/03/09 13:54:07;;;;;;;2.17;2.07;;;19.70;40.30;;;;;;5069884;28;20477;-71